createdAt,value
2023-02-09T00:02:46.732Z,-4.38
2023-02-09T00:06:50.479Z,-4.39
2023-02-09T00:10:53.452Z,-4.42
2023-02-09T00:14:58.276Z,-4.47
2023-02-09T00:19:01.265Z,-4.50
2023-02-09T00:23:04.296Z,-4.55
2023-02-09T00:27:07.266Z,-4.58
2023-02-09T00:31:13.690Z,-4.65
2023-02-09T00:35:17.267Z,-4.68
2023-02-09T00:39:20.305Z,-4.68
2023-02-09T00:43:23.305Z,-4.69
2023-02-09T00:47:30.301Z,-4.71
2023-02-09T00:51:33.452Z,-4.74
2023-02-09T00:55:38.481Z,-4.75
2023-02-09T00:59:42.830Z,-4.76
2023-02-09T01:03:47.358Z,-4.79
2023-02-09T01:07:50.948Z,-4.82
2023-02-09T01:11:54.030Z,-4.89
2023-02-09T01:15:57.064Z,-4.93
2023-02-09T01:20:01.911Z,-4.97
2023-02-09T01:24:05.338Z,-4.99
2023-02-09T01:28:08.451Z,-5.01
2023-02-09T01:32:11.648Z,-5.00
2023-02-09T01:36:16.288Z,-4.97
2023-02-09T01:40:19.318Z,-4.94
2023-02-09T01:44:59.561Z,-4.92
2023-02-09T01:49:09.418Z,-4.95
2023-02-09T01:53:14.299Z,-4.96
2023-02-09T01:57:23.737Z,-4.99
2023-02-09T02:01:27.805Z,-5.06
2023-02-09T02:05:32.873Z,-5.07
2023-02-09T02:09:37.480Z,-5.05
2023-02-09T02:13:40.635Z,-5.02
2023-02-09T02:17:59.304Z,-4.99
2023-02-09T02:22:43.428Z,-4.97
2023-02-09T02:26:56.374Z,-4.96
2023-02-09T02:31:29.715Z,-4.97
2023-02-09T02:35:38.873Z,-4.97
2023-02-09T02:39:51.078Z,-4.97
2023-02-09T02:44:02.025Z,-5.02
2023-02-09T02:48:14.391Z,-5.00
2023-02-09T02:52:18.992Z,-5.00
2023-02-09T02:56:26.022Z,-5.03
2023-02-09T03:00:33.759Z,-5.04
2023-02-09T03:04:40.198Z,-5.05
2023-02-09T03:08:52.835Z,-5.06
2023-02-09T03:13:09.293Z,-5.06
2023-02-09T03:17:26.900Z,-5.07
2023-02-09T03:21:42.776Z,-5.05
2023-02-09T03:25:52.765Z,-5.07
2023-02-09T03:29:59.182Z,-5.06
2023-02-09T03:34:02.613Z,-5.06
2023-02-09T03:38:07.125Z,-5.04
2023-02-09T03:42:12.184Z,-5.05
2023-02-09T03:46:15.199Z,-5.06
2023-02-09T03:50:18.745Z,-5.05
2023-02-09T03:54:22.677Z,-5.06
2023-02-09T03:58:27.407Z,-5.07
2023-02-09T04:02:30.814Z,-5.09
2023-02-09T04:06:34.958Z,-5.08
2023-02-09T04:10:37.964Z,-5.07
2023-02-09T04:14:42.459Z,-5.10
2023-02-09T04:18:45.998Z,-5.12
2023-02-09T04:22:49.110Z,-5.12
2023-02-09T04:26:52.065Z,-5.16
2023-02-09T04:30:57.520Z,-5.18
2023-02-09T04:35:00.542Z,-5.20
2023-02-09T04:39:03.672Z,-5.21
2023-02-09T04:43:07.304Z,-5.25
2023-02-09T04:47:11.827Z,-5.32
2023-02-09T04:51:14.984Z,-5.32
2023-02-09T04:55:18.188Z,-5.36
2023-02-09T04:59:35.984Z,-5.37
2023-02-09T05:03:40.438Z,-5.38
2023-02-09T05:07:43.433Z,-5.43
2023-02-09T05:11:46.494Z,-5.46
2023-02-09T05:15:49.679Z,-5.50
2023-02-09T05:19:54.325Z,-5.54
2023-02-09T05:23:57.278Z,-5.55
2023-02-09T05:28:00.434Z,-5.57
2023-02-09T05:32:03.655Z,-5.61
2023-02-09T05:36:09.997Z,-5.60
2023-02-09T05:40:13.960Z,-5.62
2023-02-09T05:44:17.428Z,-5.61
2023-02-09T05:48:20.402Z,-5.61
2023-02-09T05:52:25.026Z,-5.63
2023-02-09T05:56:28.037Z,-5.62
2023-02-09T06:00:31.860Z,-5.58
2023-02-09T06:04:36.107Z,-5.57
2023-02-09T06:08:40.509Z,-5.54
2023-02-09T06:12:43.510Z,-5.52
2023-02-09T06:16:46.846Z,-5.47
2023-02-09T06:20:49.813Z,-5.47
2023-02-09T06:24:54.367Z,-5.52
2023-02-09T06:28:57.341Z,-5.49
2023-02-09T06:33:00.398Z,-5.48
2023-02-09T06:37:03.434Z,-5.43
2023-02-09T06:41:07.980Z,-5.41
2023-02-09T06:45:11.617Z,-5.36
2023-02-09T06:49:14.802Z,-5.36
2023-02-09T06:53:18.724Z,-5.35
2023-02-09T06:57:23.229Z,-5.32
2023-02-09T07:01:26.272Z,-5.29
2023-02-09T07:05:29.456Z,-5.24
2023-02-09T07:09:32.438Z,-5.21
2023-02-09T07:13:37.284Z,-5.17
2023-02-09T07:17:40.764Z,-5.16
2023-02-09T07:21:43.873Z,-5.12
2023-02-09T07:25:46.844Z,-5.08
2023-02-09T07:29:51.360Z,-5.00
2023-02-09T07:33:55.750Z,-5.00
2023-02-09T07:37:58.881Z,-4.97
2023-02-09T07:42:02.119Z,-4.93
2023-02-09T07:46:25.644Z,-4.84
2023-02-09T07:50:28.708Z,-4.80
2023-02-09T07:54:31.832Z,-4.75
2023-02-09T07:58:34.880Z,-4.69
2023-02-09T08:02:39.918Z,-4.65
2023-02-09T08:06:46.147Z,-4.59
2023-02-09T08:10:49.481Z,-4.57
2023-02-09T08:14:52.469Z,-4.44
2023-02-09T08:18:59.994Z,-4.40
2023-02-09T08:23:08.331Z,-4.31
2023-02-09T08:27:11.960Z,-4.25
2023-02-09T08:31:17.401Z,-4.16
2023-02-09T08:35:22.000Z,-4.11
2023-02-09T08:39:25.040Z,-3.99
2023-02-09T08:43:28.092Z,-3.87
2023-02-09T08:47:31.228Z,-3.75
2023-02-09T08:51:35.704Z,-3.65
2023-02-09T08:55:39.427Z,-3.53
2023-02-09T08:59:42.802Z,-3.38
2023-02-09T09:03:45.779Z,-3.20
2023-02-09T09:07:50.227Z,-3.02
2023-02-09T09:11:53.318Z,-2.91
2023-02-09T09:15:56.553Z,-2.75
2023-02-09T09:20:00.657Z,-2.60
2023-02-09T09:24:05.656Z,-2.46
2023-02-09T09:28:09.837Z,-2.37
2023-02-09T09:32:14.845Z,-2.25
2023-02-09T09:36:17.919Z,-2.12
2023-02-09T09:40:25.550Z,-1.98
2023-02-09T09:44:33.502Z,-1.85
2023-02-09T09:48:43.842Z,-1.75
2023-02-09T09:52:50.730Z,-1.55
2023-02-09T09:56:55.840Z,-1.42
2023-02-09T10:00:59.201Z,-1.32
2023-02-09T10:05:11.551Z,-1.18
2023-02-09T10:09:27.142Z,-1.10
2023-02-09T10:13:36.442Z,-0.97
2023-02-09T10:17:39.377Z,-0.90
2023-02-09T10:21:42.440Z,-0.76
2023-02-09T10:26:04.524Z,-0.61
2023-02-09T10:30:20.911Z,-0.44
2023-02-09T10:34:31.904Z,-0.32
2023-02-09T10:38:35.314Z,-0.19
2023-02-09T10:42:41.994Z,-0.08
2023-02-09T10:46:47.827Z,0.02
2023-02-09T10:50:53.209Z,0.09
2023-02-09T10:55:00.134Z,0.16
2023-02-09T10:59:15.158Z,0.23
2023-02-09T11:03:21.637Z,0.30
2023-02-09T11:07:31.174Z,0.34
2023-02-09T11:11:37.785Z,0.42
2023-02-09T11:15:46.332Z,0.50
2023-02-09T11:20:20.903Z,0.59
2023-02-09T11:24:38.965Z,0.63
2023-02-09T11:28:51.192Z,0.60
2023-02-09T11:32:59.055Z,0.69
2023-02-09T11:37:16.467Z,0.76
2023-02-09T11:41:47.228Z,0.82
2023-02-09T11:45:51.966Z,0.84
2023-02-09T11:49:59.075Z,0.87
2023-02-09T11:54:08.612Z,0.95
2023-02-09T11:58:26.148Z,1.01
2023-02-09T12:02:46.305Z,1.09
2023-02-09T12:06:51.995Z,1.19
2023-02-09T12:11:09.103Z,1.20
2023-02-09T12:15:16.446Z,1.16
2023-02-09T12:19:29.358Z,1.22
2023-02-09T12:23:33.731Z,1.24
2023-02-09T12:27:40.974Z,1.32
2023-02-09T12:32:14.275Z,1.31
2023-02-09T12:36:30.535Z,1.38
2023-02-09T12:40:37.528Z,1.44
2023-02-09T12:44:55.960Z,1.53
2023-02-09T12:49:21.025Z,1.58
2023-02-09T12:53:36.073Z,1.60
2023-02-09T12:57:54.460Z,1.52
2023-02-09T13:02:27.178Z,1.47
2023-02-09T13:06:40.434Z,1.51
2023-02-09T13:10:47.332Z,1.55
2023-02-09T13:14:52.072Z,1.64
2023-02-09T13:19:03.752Z,1.66
2023-02-09T13:23:20.631Z,1.71
2023-02-09T13:27:25.429Z,1.74
2023-02-09T13:31:35.335Z,1.78
2023-02-09T13:35:58.654Z,1.80
2023-02-09T13:40:03.395Z,1.79
2023-02-09T13:44:20.696Z,1.83
2023-02-09T13:48:25.224Z,1.85
2023-02-09T13:52:36.428Z,1.80
2023-02-09T13:56:42.844Z,1.78
2023-02-09T14:00:49.650Z,1.77
2023-02-09T14:04:57.318Z,1.75
2023-02-09T14:09:03.612Z,1.70
2023-02-09T14:13:18.359Z,1.65
2023-02-09T14:17:26.340Z,1.64
2023-02-09T14:21:34.258Z,1.62
2023-02-09T14:25:40.376Z,1.60
2023-02-09T14:29:47.851Z,1.57
2023-02-09T14:33:53.275Z,1.53
2023-02-09T14:37:58.101Z,1.50
2023-02-09T14:42:18.416Z,1.48
2023-02-09T14:46:21.736Z,1.45
2023-02-09T14:50:25.432Z,1.39
2023-02-09T14:54:30.585Z,1.39
2023-02-09T14:58:35.172Z,1.39
2023-02-09T15:02:38.349Z,1.36
2023-02-09T15:06:45.055Z,1.29
2023-02-09T15:10:53.382Z,1.24
2023-02-09T15:15:00.547Z,1.18
2023-02-09T15:19:05.409Z,1.16
2023-02-09T15:23:08.882Z,1.12
2023-02-09T15:27:16.628Z,1.08
2023-02-09T15:31:21.989Z,1.02
2023-02-09T15:35:27.346Z,0.96
2023-02-09T15:39:31.579Z,0.91
2023-02-09T15:43:51.866Z,0.89
2023-02-09T15:47:58.892Z,0.84
2023-02-09T15:52:02.048Z,0.77
2023-02-09T15:56:06.617Z,0.71
2023-02-09T16:00:17.325Z,0.64
2023-02-09T16:04:21.970Z,0.59
2023-02-09T16:08:27.068Z,0.53
2023-02-09T16:12:30.530Z,0.48
2023-02-09T16:16:33.811Z,0.44
2023-02-09T16:20:39.240Z,0.40
2023-02-09T16:24:45.934Z,0.36
2023-02-09T16:28:49.067Z,0.32
2023-02-09T16:32:53.297Z,0.23
2023-02-09T16:36:57.750Z,0.18
2023-02-09T16:41:00.745Z,0.14
2023-02-09T16:45:03.928Z,0.09
2023-02-09T16:49:06.994Z,0.05
2023-02-09T16:53:18.371Z,0.01
2023-02-09T16:57:23.460Z,-0.04
2023-02-09T17:01:26.548Z,-0.08
2023-02-09T17:05:32.038Z,-0.12
2023-02-09T17:09:36.544Z,-0.18
2023-02-09T17:13:39.577Z,-0.21
2023-02-09T17:17:48.121Z,-0.24
2023-02-09T17:21:51.107Z,-0.29
2023-02-09T17:25:56.235Z,-0.30
2023-02-09T17:29:59.200Z,-0.31
2023-02-09T17:34:04.206Z,-0.33
2023-02-09T17:38:07.781Z,-0.38
2023-02-09T17:42:22.840Z,-0.42
2023-02-09T17:46:25.890Z,-0.43
2023-02-09T17:50:29.516Z,-0.46
2023-02-09T17:54:33.964Z,-0.55
2023-02-09T17:58:38.739Z,-0.58
2023-02-09T18:02:41.896Z,-0.61
2023-02-09T18:06:45.075Z,-0.63
2023-02-09T18:10:48.228Z,-0.67
2023-02-09T18:14:53.135Z,-0.67
2023-02-09T18:18:56.142Z,-0.70
2023-02-09T18:22:59.425Z,-0.71
2023-02-09T18:27:02.904Z,-0.75
2023-02-09T18:31:08.345Z,-0.79
2023-02-09T18:35:18.102Z,-0.80
2023-02-09T18:39:21.237Z,-0.76
2023-02-09T18:43:24.213Z,-0.74
2023-02-09T18:47:28.709Z,-0.75
2023-02-09T18:51:32.508Z,-0.77
2023-02-09T18:55:36.143Z,-0.77
2023-02-09T18:59:40.332Z,-0.76
2023-02-09T19:03:44.767Z,-0.74
2023-02-09T19:07:47.933Z,-0.73
2023-02-09T19:11:50.991Z,-0.76
2023-02-09T19:15:54.066Z,-0.76
2023-02-09T19:19:59.744Z,-0.77
2023-02-09T19:24:02.885Z,-0.82
2023-02-09T19:28:06.266Z,-0.83
2023-02-09T19:32:09.406Z,-0.88
2023-02-09T19:36:13.900Z,-0.89
2023-02-09T19:40:21.517Z,-0.91
2023-02-09T19:44:24.628Z,-0.96
2023-02-09T19:48:27.612Z,-0.97
2023-02-09T19:52:34.850Z,-1.00
2023-02-09T19:56:38.465Z,-1.01
2023-02-09T20:00:41.780Z,-1.03
2023-02-09T20:04:45.959Z,-1.05
2023-02-09T20:08:50.627Z,-1.06
2023-02-09T20:12:53.636Z,-1.10
2023-02-09T20:16:56.849Z,-1.12
2023-02-09T20:20:59.802Z,-1.09
2023-02-09T20:25:04.328Z,-1.12
2023-02-09T20:29:07.407Z,-1.16
2023-02-09T20:33:11.024Z,-1.20
2023-02-09T20:37:14.049Z,-1.21
2023-02-09T20:41:19.410Z,-1.25
2023-02-09T20:45:39.773Z,-1.25
2023-02-09T20:49:43.347Z,-1.26
2023-02-09T20:53:49.788Z,-1.28
2023-02-09T20:57:57.877Z,-1.29
2023-02-09T21:02:14.273Z,-1.31
2023-02-09T21:06:22.443Z,-1.32
2023-02-09T21:10:31.593Z,-1.34
2023-02-09T21:14:43.906Z,-1.35
2023-02-09T21:18:46.898Z,-1.34
2023-02-09T21:22:50.527Z,-1.33
2023-02-09T21:26:53.523Z,-1.34
2023-02-09T21:30:58.100Z,-1.36
2023-02-09T21:35:01.041Z,-1.39
2023-02-09T21:39:04.288Z,-1.41
2023-02-09T21:43:07.234Z,-1.36
2023-02-09T21:47:11.784Z,-1.33
2023-02-09T21:51:14.748Z,-1.33
2023-02-09T21:55:18.154Z,-1.41
2023-02-09T21:59:21.300Z,-1.42
2023-02-09T22:03:26.119Z,-1.44
2023-02-09T22:07:29.629Z,-1.49
2023-02-09T22:11:32.768Z,-1.52
2023-02-09T22:15:35.746Z,-1.57
2023-02-09T22:19:40.274Z,-1.61
2023-02-09T22:23:43.448Z,-1.65
2023-02-09T22:27:46.543Z,-1.71
2023-02-09T22:31:49.528Z,-1.77
2023-02-09T22:35:54.039Z,-1.79
2023-02-09T22:39:57.216Z,-1.85
2023-02-09T22:44:02.207Z,-1.91
2023-02-09T22:48:05.628Z,-1.93
2023-02-09T22:52:10.517Z,-1.97
2023-02-09T22:56:13.901Z,-1.99
2023-02-09T23:00:17.908Z,-2.05
2023-02-09T23:04:21.242Z,-2.07
2023-02-09T23:08:25.737Z,-2.10
2023-02-09T23:12:28.710Z,-2.11
2023-02-09T23:16:32.477Z,-2.14
2023-02-09T23:20:35.441Z,-2.16
2023-02-09T23:24:39.972Z,-2.22
2023-02-09T23:28:43.272Z,-2.24
2023-02-09T23:32:46.549Z,-2.25
2023-02-09T23:36:49.778Z,-2.28
2023-02-09T23:40:54.427Z,-2.32
2023-02-09T23:44:57.514Z,-2.35
2023-02-09T23:49:00.829Z,-2.41
2023-02-09T23:53:03.964Z,-2.44
2023-02-09T23:57:08.712Z,-2.47
